Chemtrans Sea — A8EL8 — position and weather

sailwx.info

Track history (hours):
 
Tides and Currents Weather Stations Pressure Air Temp Water Temp Dewpoint Dewpoint Depression Visibility Wind Speed Wind Dir Waves Ship Positions

Chemtrans Sea

Last reported at 2018-Jun-15 13:18 UTC. Time now 2018-Jun-19 04:31 UTC.
Position N 36°06' E 014°27'.

Length 228 m; draft 12.8 m.

Type: Tanker. MMSI: 636090747.

Date/timePositionNaut miles runAvg speedWind from/ knotsBaromVisibWave heightAir tempDewpointWater temp
2018-Jun-15 13:18N 36°06' E 014°27'413.2
2018-Jun-15 12:58N 36°09' E 014°22'1513.7
2018-Jun-15 11:52N 36°15' E 014°06'613.9
2018-Jun-15 11:25N 36°18' E 013°59'614.0
2018-Jun-15 11:00N 36°20' E 013°52'1014.0
2018-Jun-15 10:15N 36°25' E 013°40'313.7
2018-Jun-15 10:00N 36°27' E 013°37'55313.4
2018-Jun-13 16:40N 36°60' E 002°08'614.2
2018-Jun-13 16:13N 36°58' E 002°01'414.1
2018-Jun-13 15:57N 36°57' E 001°56'2714.1
2018-Jun-13 14:03N 36°50' E 001°24'114.5
2018-Jun-13 14:00N 36°50' E 001°23'814.3
2018-Jun-13 13:28N 36°48' E 001°13'814.4
2018-Jun-13 12:53N 36°46' E 001°03'514.4
2018-Jun-13 12:31N 36°45' E 000°57'7514.0
2018-Jun-13 07:09N 36°25' W 000°34'413.5
2018-Jun-13 06:52N 36°24' W 000°38'513.6
2018-Jun-13 06:29N 36°23' W 000°45'21711.3
2018-Jun-12 11:14N 36°01' W 005°13'313.3
2018-Jun-12 11:00N 36°01' W 005°16'6 4.2
2018-Jun-12 09:38N 36°04' W 005°22'1 4.4
2018-Jun-12 09:30N 36°05' W 005°22'3 0.4
2018-Jun-12 02:12N 36°08' W 005°23'0 0.1
2018-Jun-12 01:18N 36°08' W 005°23'0 0.1
2018-Jun-12 00:48N 36°08' W 005°23'0 0.0
2018-Jun-11 23:12N 36°08' W 005°23'0 0.0
2018-Jun-11 21:00N 36°08' W 005°23'0 0.1
2018-Jun-11 20:30N 36°08' W 005°23'0 0.0
2018-Jun-11 20:00N 36°08' W 005°23'0 0.1
2018-Jun-11 19:30N 36°08' W 005°23'0 0.1
2018-Jun-11 19:00N 36°08' W 005°22'1 0.3
2018-Jun-11 15:49N 36°07' W 005°23'2 6.7
2018-Jun-11 15:30N 36°06' W 005°22'2 3.9
2018-Jun-11 15:00N 36°05' W 005°19'3 5.8
2018-Jun-11 14:30N 36°05' W 005°16'  
2018-Jun-08 14:51N 36°14' W 023°51'513.1
2018-Jun-08 14:30N 36°14' W 023°56'612.9
2018-Jun-08 14:00N 36°14' W 024°04'713.2
2018-Jun-08 13:30N 36°14' W 024°13'713.3
2018-Jun-08 13:00N 36°13' W 024°21'713.4
2018-Jun-08 12:30N 36°13' W 024°29'713.4
2018-Jun-08 12:00N 36°13' W 024°37'713.4
2018-Jun-08 11:30N 36°13' W 024°46'713.8
2018-Jun-08 11:01N 36°13' W 024°54'713.8
2018-Jun-08 10:30N 36°13' W 025°03'713.5
2018-Jun-08 10:00N 36°12' W 025°11'713.5
2018-Jun-08 09:30N 36°12' W 025°19'713.7
2018-Jun-08 09:01N 36°11' W 025°28'713.5
2018-Jun-08 08:30N 36°11' W 025°36'713.7
2018-Jun-08 08:00N 36°11' W 025°45'713.9
2018-Jun-08 07:30N 36°10' W 025°53'713.6
2018-Jun-08 07:00N 36°10' W 026°02'713.7
2018-Jun-08 06:30N 36°10' W 026°10'1113.7
2018-Jun-08 05:43N 36°10' W 026°24'613.8
2018-Jun-08 05:15N 36°10' W 026°32'1213.8
2018-Jun-08 04:23N 36°10' W 026°46'513.8
2018-Jun-08 04:01N 36°09' W 026°53'714.2
2018-Jun-08 03:30N 36°09' W 027°02'813.9
2018-Jun-08 02:55N 36°09' W 027°12'614.0
2018-Jun-08 02:30N 36°09' W 027°19'814.0
2018-Jun-08 01:55N 36°08' W 027°29'614.1
2018-Jun-08 01:30N 36°08' W 027°36'714.0
2018-Jun-08 01:00N 36°08' W 027°45'713.5
2018-Jun-08 00:30N 36°08' W 027°53'713.6
2018-Jun-07 23:59N 36°08' W 028°02'713.4
2018-Jun-07 23:30N 36°08' W 028°10'1013.7
2018-Jun-07 22:49N 36°07' W 028°22'1013.9
2018-Jun-07 22:05N 36°07' W 028°34'414.1
2018-Jun-07 21:47N 36°07' W 028°39'414.2
2018-Jun-07 21:30N 36°07' W 028°44'714.0
2018-Jun-07 21:00N 36°06' W 028°53'714.0
2018-Jun-07 20:30N 36°06' W 029°02'813.8
2018-Jun-07 19:54N 36°06' W 029°12'613.3
2018-Jun-07 19:28N 36°05' W 029°19'713.6
2018-Jun-07 18:58N 36°05' W 029°28'2913.2
2018-Jun-07 16:46N 36°04' W 030°04'513.3
2018-Jun-07 16:23N 36°04' W 030°10'  
Track history (hours):
 
Tides and Currents Weather Stations Pressure Air Temp Water Temp Dewpoint Dewpoint Depression Visibility Wind Speed Wind Dir Waves Ship Positions

Chemtrans Sea

Last reported at 2018-Jun-15 13:18 UTC. Time now 2018-Jun-19 04:31 UTC.
Position N 36°06' E 014°27'.

Length 228 m; draft 12.8 m.

Type: Tanker. MMSI: 636090747.

Date/timePositionNaut miles runAvg speedWind from/ knotsBaromVisibWave heightAir tempDewpointWater temp
2018-Jun-15 13:18N 36°06' E 014°27'413.2
2018-Jun-15 12:58N 36°09' E 014°22'1513.7
2018-Jun-15 11:52N 36°15' E 014°06'613.9
2018-Jun-15 11:25N 36°18' E 013°59'614.0
2018-Jun-15 11:00N 36°20' E 013°52'1014.0
2018-Jun-15 10:15N 36°25' E 013°40'313.7
2018-Jun-15 10:00N 36°27' E 013°37'55313.4
2018-Jun-13 16:40N 36°60' E 002°08'614.2
2018-Jun-13 16:13N 36°58' E 002°01'414.1
2018-Jun-13 15:57N 36°57' E 001°56'2714.1
2018-Jun-13 14:03N 36°50' E 001°24'114.5
2018-Jun-13 14:00N 36°50' E 001°23'814.3
2018-Jun-13 13:28N 36°48' E 001°13'814.4
2018-Jun-13 12:53N 36°46' E 001°03'514.4
2018-Jun-13 12:31N 36°45' E 000°57'7514.0
2018-Jun-13 07:09N 36°25' W 000°34'413.5
2018-Jun-13 06:52N 36°24' W 000°38'513.6
2018-Jun-13 06:29N 36°23' W 000°45'21711.3
2018-Jun-12 11:14N 36°01' W 005°13'313.3
2018-Jun-12 11:00N 36°01' W 005°16'6 4.2
2018-Jun-12 09:38N 36°04' W 005°22'1 4.4
2018-Jun-12 09:30N 36°05' W 005°22'3 0.4
2018-Jun-12 02:12N 36°08' W 005°23'0 0.1
2018-Jun-12 01:18N 36°08' W 005°23'0 0.1
2018-Jun-12 00:48N 36°08' W 005°23'0 0.0
2018-Jun-11 23:12N 36°08' W 005°23'0 0.0
2018-Jun-11 21:00N 36°08' W 005°23'0 0.1
2018-Jun-11 20:30N 36°08' W 005°23'0 0.0
2018-Jun-11 20:00N 36°08' W 005°23'0 0.1
2018-Jun-11 19:30N 36°08' W 005°23'0 0.1
2018-Jun-11 19:00N 36°08' W 005°22'1 0.3
2018-Jun-11 15:49N 36°07' W 005°23'2 6.7
2018-Jun-11 15:30N 36°06' W 005°22'2 3.9
2018-Jun-11 15:00N 36°05' W 005°19'3 5.8
2018-Jun-11 14:30N 36°05' W 005°16'  
2018-Jun-08 14:51N 36°14' W 023°51'513.1
2018-Jun-08 14:30N 36°14' W 023°56'612.9
2018-Jun-08 14:00N 36°14' W 024°04'713.2
2018-Jun-08 13:30N 36°14' W 024°13'713.3
2018-Jun-08 13:00N 36°13' W 024°21'713.4
2018-Jun-08 12:30N 36°13' W 024°29'713.4
2018-Jun-08 12:00N 36°13' W 024°37'713.4
2018-Jun-08 11:30N 36°13' W 024°46'713.8
2018-Jun-08 11:01N 36°13' W 024°54'713.8
2018-Jun-08 10:30N 36°13' W 025°03'713.5
2018-Jun-08 10:00N 36°12' W 025°11'713.5
2018-Jun-08 09:30N 36°12' W 025°19'713.7
2018-Jun-08 09:01N 36°11' W 025°28'713.5
2018-Jun-08 08:30N 36°11' W 025°36'713.7
2018-Jun-08 08:00N 36°11' W 025°45'713.9
2018-Jun-08 07:30N 36°10' W 025°53'713.6
2018-Jun-08 07:00N 36°10' W 026°02'713.7
2018-Jun-08 06:30N 36°10' W 026°10'1113.7
2018-Jun-08 05:43N 36°10' W 026°24'613.8
2018-Jun-08 05:15N 36°10' W 026°32'1213.8
2018-Jun-08 04:23N 36°10' W 026°46'513.8
2018-Jun-08 04:01N 36°09' W 026°53'714.2
2018-Jun-08 03:30N 36°09' W 027°02'813.9
2018-Jun-08 02:55N 36°09' W 027°12'614.0
2018-Jun-08 02:30N 36°09' W 027°19'814.0
2018-Jun-08 01:55N 36°08' W 027°29'614.1
2018-Jun-08 01:30N 36°08' W 027°36'714.0
2018-Jun-08 01:00N 36°08' W 027°45'713.5
2018-Jun-08 00:30N 36°08' W 027°53'713.6
2018-Jun-07 23:59N 36°08' W 028°02'713.4
2018-Jun-07 23:30N 36°08' W 028°10'1013.7
2018-Jun-07 22:49N 36°07' W 028°22'1013.9
2018-Jun-07 22:05N 36°07' W 028°34'414.1
2018-Jun-07 21:47N 36°07' W 028°39'414.2
2018-Jun-07 21:30N 36°07' W 028°44'714.0
2018-Jun-07 21:00N 36°06' W 028°53'714.0
2018-Jun-07 20:30N 36°06' W 029°02'813.8
2018-Jun-07 19:54N 36°06' W 029°12'613.3
2018-Jun-07 19:28N 36°05' W 029°19'713.6
2018-Jun-07 18:58N 36°05' W 029°28'2913.2
2018-Jun-07 16:46N 36°04' W 030°04'513.3
2018-Jun-07 16:23N 36°04' W 030°10'  

Dump ship's entire track history